Terminal Aerodrome Forecast
Issued by NWS Cleveland, OH

Home | Current Version | Previous Version | Text Only | Print | Product List | Glossary On
Versions: 1 2 3 4 5 6 7 8 9 10 11 12 13 14
000
FTUS41 KCLE 180500
TAFTOL
TAF
KTOL 180525Z 1806/1906 00000KT P6SM SKC
     FM181000 00000KT 5SM BR SKC
     FM181200 02005KT P6SM SCT050
     FM182300 07004KT P6SM SKC=

USA.gov is the U.S. government's official web portal to all federal, state and local government web resources and services.